sensor_id;sensor_type;location;lat;lon;timestamp;P1;durP1;ratioP1;P2;durP2;ratioP2
21943;SDS011;11136;48.778;9.126;2023-06-19T00:01:45;7.32;;;5.93;;
21943;SDS011;11136;48.778;9.126;2023-06-19T00:04:10;8.85;;;6.32;;
21943;SDS011;11136;48.778;9.126;2023-06-19T00:06:36;7.57;;;5.85;;
21943;SDS011;11136;48.778;9.126;2023-06-19T00:09:02;7.05;;;5.30;;
21943;SDS011;11136;48.778;9.126;2023-06-19T00:11:28;7.45;;;6.15;;
21943;SDS011;11136;48.778;9.126;2023-06-19T00:13:54;8.07;;;6.10;;
21943;SDS011;11136;48.778;9.126;2023-06-19T00:16:20;8.48;;;5.40;;
21943;SDS011;11136;48.778;9.126;2023-06-19T00:18:46;7.57;;;5.88;;
21943;SDS011;11136;48.778;9.126;2023-06-19T00:21:11;6.22;;;5.50;;
21943;SDS011;11136;48.778;9.126;2023-06-19T00:23:37;12.48;;;6.25;;
21943;SDS011;11136;48.778;9.126;2023-06-19T00:26:03;7.85;;;5.68;;
21943;SDS011;11136;48.778;9.126;2023-06-19T00:28:29;6.63;;;5.55;;
21943;SDS011;11136;48.778;9.126;2023-06-19T00:30:55;7.32;;;5.68;;
21943;SDS011;11136;48.778;9.126;2023-06-19T00:33:21;6.68;;;5.85;;
21943;SDS011;11136;48.778;9.126;2023-06-19T00:35:49;8.93;;;5.78;;
21943;SDS011;11136;48.778;9.126;2023-06-19T00:38:15;6.40;;;5.80;;
21943;SDS011;11136;48.778;9.126;2023-06-19T00:40:41;8.40;;;5.53;;
21943;SDS011;11136;48.778;9.126;2023-06-19T00:43:06;6.35;;;5.40;;
21943;SDS011;11136;48.778;9.126;2023-06-19T00:45:32;6.05;;;5.35;;
21943;SDS011;11136;48.778;9.126;2023-06-19T00:47:58;6.55;;;5.68;;
21943;SDS011;11136;48.778;9.126;2023-06-19T00:50:24;10.90;;;6.13;;
21943;SDS011;11136;48.778;9.126;2023-06-19T00:52:52;6.70;;;5.28;;
21943;SDS011;11136;48.778;9.126;2023-06-19T00:55:18;6.45;;;5.35;;
21943;SDS011;11136;48.778;9.126;2023-06-19T00:57:44;9.27;;;5.65;;
21943;SDS011;11136;48.778;9.126;2023-06-19T01:00:11;7.07;;;5.72;;
21943;SDS011;11136;48.778;9.126;2023-06-19T01:02:37;8.85;;;5.43;;
21943;SDS011;11136;48.778;9.126;2023-06-19T01:05:04;8.88;;;5.45;;
21943;SDS011;11136;48.778;9.126;2023-06-19T01:10:05;5.68;;;4.95;;
21943;SDS011;11136;48.778;9.126;2023-06-19T01:12:34;5.95;;;5.15;;
21943;SDS011;11136;48.778;9.126;2023-06-19T01:15:03;7.28;;;5.00;;
21943;SDS011;11136;48.778;9.126;2023-06-19T01:20:52;8.57;;;4.80;;
21943;SDS011;11136;48.778;9.126;2023-06-19T01:23:18;6.05;;;4.22;;
21943;SDS011;11136;48.778;9.126;2023-06-19T01:25:43;10.68;;;4.78;;
21943;SDS011;11136;48.778;9.126;2023-06-19T01:28:10;4.55;;;4.05;;
21943;SDS011;11136;48.778;9.126;2023-06-19T01:30:37;7.68;;;3.70;;
21943;SDS011;11136;48.778;9.126;2023-06-19T01:33:19;6.13;;;3.47;;
21943;SDS011;11136;48.778;9.126;2023-06-19T01:35:51;9.93;;;4.43;;
21943;SDS011;11136;48.778;9.126;2023-06-19T01:38:18;6.70;;;4.38;;
21943;SDS011;11136;48.778;9.126;2023-06-19T01:40:45;9.95;;;4.38;;
21943;SDS011;11136;48.778;9.126;2023-06-19T01:43:13;4.30;;;3.90;;
21943;SDS011;11136;48.778;9.126;2023-06-19T01:45:40;6.35;;;4.00;;
21943;SDS011;11136;48.778;9.126;2023-06-19T01:48:07;4.10;;;3.70;;
21943;SDS011;11136;48.778;9.126;2023-06-19T01:50:33;5.68;;;3.45;;
21943;SDS011;11136;48.778;9.126;2023-06-19T01:52:59;6.93;;;3.85;;
21943;SDS011;11136;48.778;9.126;2023-06-19T01:55:24;5.05;;;4.13;;
21943;SDS011;11136;48.778;9.126;2023-06-19T01:57:50;6.72;;;3.70;;
21943;SDS011;11136;48.778;9.126;2023-06-19T02:00:16;5.05;;;3.88;;
21943;SDS011;11136;48.778;9.126;2023-06-19T02:02:42;4.82;;;3.47;;
21943;SDS011;11136;48.778;9.126;2023-06-19T02:05:08;4.72;;;3.30;;
21943;SDS011;11136;48.778;9.126;2023-06-19T02:07:34;5.35;;;3.70;;
21943;SDS011;11136;48.778;9.126;2023-06-19T02:09:59;6.18;;;4.25;;
21943;SDS011;11136;48.778;9.126;2023-06-19T02:12:25;5.25;;;3.83;;
21943;SDS011;11136;48.778;9.126;2023-06-19T02:14:51;4.72;;;3.60;;
21943;SDS011;11136;48.778;9.126;2023-06-19T02:17:16;5.15;;;3.60;;
21943;SDS011;11136;48.778;9.126;2023-06-19T02:19:42;5.95;;;3.58;;
21943;SDS011;11136;48.778;9.126;2023-06-19T02:22:08;7.75;;;3.83;;
21943;SDS011;11136;48.778;9.126;2023-06-19T02:24:33;5.88;;;3.90;;
21943;SDS011;11136;48.778;9.126;2023-06-19T02:26:59;4.90;;;3.20;;
21943;SDS011;11136;48.778;9.126;2023-06-19T02:29:25;5.22;;;3.83;;
21943;SDS011;11136;48.778;9.126;2023-06-19T02:31:51;4.20;;;3.42;;
21943;SDS011;11136;48.778;9.126;2023-06-19T02:34:17;3.78;;;3.47;;
21943;SDS011;11136;48.778;9.126;2023-06-19T02:36:42;3.60;;;3.30;;
21943;SDS011;11136;48.778;9.126;2023-06-19T02:39:08;3.88;;;3.13;;
21943;SDS011;11136;48.778;9.126;2023-06-19T02:41:34;6.93;;;4.05;;
21943;SDS011;11136;48.778;9.126;2023-06-19T02:43:59;5.80;;;4.03;;
21943;SDS011;11136;48.778;9.126;2023-06-19T02:46:25;5.38;;;3.90;;
21943;SDS011;11136;48.778;9.126;2023-06-19T02:48:51;4.45;;;3.63;;
21943;SDS011;11136;48.778;9.126;2023-06-19T02:51:16;4.30;;;3.42;;
21943;SDS011;11136;48.778;9.126;2023-06-19T02:53:42;6.65;;;3.25;;
21943;SDS011;11136;48.778;9.126;2023-06-19T02:56:09;6.63;;;3.20;;
21943;SDS011;11136;48.778;9.126;2023-06-19T02:58:35;3.40;;;3.10;;
21943;SDS011;11136;48.778;9.126;2023-06-19T03:01:02;5.03;;;3.47;;
21943;SDS011;11136;48.778;9.126;2023-06-19T03:03:32;4.13;;;3.35;;
21943;SDS011;11136;48.778;9.126;2023-06-19T03:06:05;4.30;;;2.80;;
21943;SDS011;11136;48.778;9.126;2023-06-19T03:08:35;4.93;;;3.20;;
21943;SDS011;11136;48.778;9.126;2023-06-19T03:11:02;3.47;;;3.17;;
21943;SDS011;11136;48.778;9.126;2023-06-19T03:13:52;3.45;;;3.15;;
21943;SDS011;11136;48.778;9.126;2023-06-19T03:16:17;6.68;;;3.95;;
21943;SDS011;11136;48.778;9.126;2023-06-19T03:18:44;4.35;;;3.03;;
21943;SDS011;11136;48.778;9.126;2023-06-19T03:21:13;10.35;;;3.50;;
21943;SDS011;11136;48.778;9.126;2023-06-19T03:23:39;3.45;;;3.15;;
21943;SDS011;11136;48.778;9.126;2023-06-19T03:26:08;4.13;;;3.10;;
21943;SDS011;11136;48.778;9.126;2023-06-19T03:28:37;4.07;;;3.35;;
21943;SDS011;11136;48.778;9.126;2023-06-19T03:31:03;3.63;;;3.17;;
21943;SDS011;11136;48.778;9.126;2023-06-19T03:33:28;4.43;;;3.20;;
21943;SDS011;11136;48.778;9.126;2023-06-19T03:35:54;6.15;;;3.33;;
21943;SDS011;11136;48.778;9.126;2023-06-19T03:38:20;3.25;;;2.70;;
21943;SDS011;11136;48.778;9.126;2023-06-19T03:40:46;3.75;;;2.92;;
21943;SDS011;11136;48.778;9.126;2023-06-19T03:43:11;3.40;;;2.50;;
21943;SDS011;11136;48.778;9.126;2023-06-19T03:45:37;4.28;;;2.83;;
21943;SDS011;11136;48.778;9.126;2023-06-19T03:48:02;3.17;;;2.80;;
21943;SDS011;11136;48.778;9.126;2023-06-19T03:50:28;3.42;;;2.75;;
21943;SDS011;11136;48.778;9.126;2023-06-19T03:52:54;3.63;;;2.65;;
21943;SDS011;11136;48.778;9.126;2023-06-19T03:55:20;4.53;;;2.85;;
21943;SDS011;11136;48.778;9.126;2023-06-19T03:57:46;2.80;;;2.50;;
21943;SDS011;11136;48.778;9.126;2023-06-19T04:00:13;3.13;;;2.65;;
21943;SDS011;11136;48.778;9.126;2023-06-19T04:02:40;4.00;;;2.42;;
21943;SDS011;11136;48.778;9.126;2023-06-19T04:05:06;4.28;;;2.20;;
21943;SDS011;11136;48.778;9.126;2023-06-19T04:07:32;3.40;;;2.60;;
21943;SDS011;11136;48.778;9.126;2023-06-19T04:09:58;2.50;;;2.30;;
21943;SDS011;11136;48.778;9.126;2023-06-19T04:12:23;2.88;;;2.40;;
21943;SDS011;11136;48.778;9.126;2023-06-19T04:14:49;3.38;;;2.40;;
21943;SDS011;11136;48.778;9.126;2023-06-19T04:17:15;4.05;;;2.70;;
21943;SDS011;11136;48.778;9.126;2023-06-19T04:19:41;3.50;;;3.05;;
21943;SDS011;11136;48.778;9.126;2023-06-19T04:22:06;4.30;;;2.58;;
21943;SDS011;11136;48.778;9.126;2023-06-19T04:24:32;2.65;;;2.35;;
21943;SDS011;11136;48.778;9.126;2023-06-19T04:26:58;3.42;;;2.40;;
21943;SDS011;11136;48.778;9.126;2023-06-19T04:29:23;2.83;;;2.28;;
21943;SDS011;11136;48.778;9.126;2023-06-19T04:31:49;2.63;;;2.20;;
21943;SDS011;11136;48.778;9.126;2023-06-19T04:34:15;5.10;;;3.00;;
21943;SDS011;11136;48.778;9.126;2023-06-19T04:36:42;3.22;;;2.65;;
21943;SDS011;11136;48.778;9.126;2023-06-19T04:39:07;3.50;;;2.80;;
21943;SDS011;11136;48.778;9.126;2023-06-19T04:41:34;3.63;;;2.38;;
21943;SDS011;11136;48.778;9.126;2023-06-19T04:44:03;4.68;;;2.25;;
21943;SDS011;11136;48.778;9.126;2023-06-19T04:46:32;4.35;;;2.78;;
21943;SDS011;11136;48.778;9.126;2023-06-19T04:48:58;4.82;;;2.85;;
21943;SDS011;11136;48.778;9.126;2023-06-19T04:51:24;3.65;;;2.78;;
21943;SDS011;11136;48.778;9.126;2023-06-19T04:53:51;3.20;;;2.22;;
21943;SDS011;11136;48.778;9.126;2023-06-19T04:56:16;5.78;;;2.78;;
21943;SDS011;11136;48.778;9.126;2023-06-19T04:58:42;3.78;;;2.60;;
21943;SDS011;11136;48.778;9.126;2023-06-19T05:01:12;4.43;;;2.75;;
21943;SDS011;11136;48.778;9.126;2023-06-19T05:03:38;2.70;;;2.50;;
21943;SDS011;11136;48.778;9.126;2023-06-19T05:06:04;5.40;;;2.15;;
21943;SDS011;11136;48.778;9.126;2023-06-19T05:08:30;3.08;;;2.33;;
21943;SDS011;11136;48.778;9.126;2023-06-19T05:10:55;6.47;;;2.47;;
21943;SDS011;11136;48.778;9.126;2023-06-19T05:13:23;2.63;;;2.13;;
21943;SDS011;11136;48.778;9.126;2023-06-19T05:15:48;2.83;;;2.40;;
21943;SDS011;11136;48.778;9.126;2023-06-19T05:18:15;4.43;;;2.20;;
21943;SDS011;11136;48.778;9.126;2023-06-19T05:20:41;3.67;;;2.17;;
21943;SDS011;11136;48.778;9.126;2023-06-19T05:23:07;2.60;;;1.98;;
21943;SDS011;11136;48.778;9.126;2023-06-19T05:25:32;5.15;;;2.55;;
21943;SDS011;11136;48.778;9.126;2023-06-19T05:27:58;2.72;;;2.40;;
21943;SDS011;11136;48.778;9.126;2023-06-19T05:30:24;3.20;;;2.65;;
21943;SDS011;11136;48.778;9.126;2023-06-19T05:32:49;5.75;;;4.20;;
21943;SDS011;11136;48.778;9.126;2023-06-19T05:35:15;3.80;;;2.83;;
21943;SDS011;11136;48.778;9.126;2023-06-19T05:37:40;2.72;;;2.20;;
21943;SDS011;11136;48.778;9.126;2023-06-19T05:40:08;2.92;;;2.28;;
21943;SDS011;11136;48.778;9.126;2023-06-19T05:42:34;2.63;;;2.10;;
21943;SDS011;11136;48.778;9.126;2023-06-19T05:45:01;2.60;;;2.30;;
21943;SDS011;11136;48.778;9.126;2023-06-19T05:47:27;3.10;;;2.50;;
21943;SDS011;11136;48.778;9.126;2023-06-19T05:49:54;4.30;;;2.85;;
21943;SDS011;11136;48.778;9.126;2023-06-19T05:52:19;3.70;;;2.50;;
21943;SDS011;11136;48.778;9.126;2023-06-19T05:54:46;3.22;;;2.80;;
21943;SDS011;11136;48.778;9.126;2023-06-19T05:57:11;4.72;;;2.88;;
21943;SDS011;11136;48.778;9.126;2023-06-19T05:59:37;2.88;;;2.45;;
21943;SDS011;11136;48.778;9.126;2023-06-19T06:02:03;2.80;;;2.50;;
21943;SDS011;11136;48.778;9.126;2023-06-19T06:04:29;2.85;;;2.40;;
21943;SDS011;11136;48.778;9.126;2023-06-19T06:06:55;3.42;;;2.47;;
21943;SDS011;11136;48.778;9.126;2023-06-19T06:09:21;4.30;;;2.53;;
21943;SDS011;11136;48.778;9.126;2023-06-19T06:11:47;3.00;;;2.47;;
21943;SDS011;11136;48.778;9.126;2023-06-19T06:14:13;2.60;;;2.40;;
21943;SDS011;11136;48.778;9.126;2023-06-19T06:16:41;2.92;;;2.35;;
21943;SDS011;11136;48.778;9.126;2023-06-19T06:19:06;3.05;;;2.53;;
21943;SDS011;11136;48.778;9.126;2023-06-19T06:21:32;4.30;;;2.78;;
21943;SDS011;11136;48.778;9.126;2023-06-19T06:23:59;4.30;;;2.55;;
21943;SDS011;11136;48.778;9.126;2023-06-19T06:26:25;3.00;;;2.63;;
21943;SDS011;11136;48.778;9.126;2023-06-19T06:28:53;4.40;;;2.42;;
21943;SDS011;11136;48.778;9.126;2023-06-19T06:31:19;2.45;;;2.15;;
21943;SDS011;11136;48.778;9.126;2023-06-19T06:33:44;4.85;;;2.45;;
21943;SDS011;11136;48.778;9.126;2023-06-19T06:36:10;4.55;;;2.30;;
21943;SDS011;11136;48.778;9.126;2023-06-19T06:38:35;3.15;;;2.28;;
21943;SDS011;11136;48.778;9.126;2023-06-19T06:41:01;4.22;;;2.75;;
21943;SDS011;11136;48.778;9.126;2023-06-19T06:43:27;2.50;;;2.30;;
21943;SDS011;11136;48.778;9.126;2023-06-19T06:45:53;3.30;;;2.30;;
21943;SDS011;11136;48.778;9.126;2023-06-19T06:48:18;3.75;;;1.92;;
21943;SDS011;11136;48.778;9.126;2023-06-19T06:50:44;2.35;;;1.90;;
21943;SDS011;11136;48.778;9.126;2023-06-19T06:53:10;3.08;;;1.75;;
21943;SDS011;11136;48.778;9.126;2023-06-19T06:55:35;3.35;;;1.77;;
21943;SDS011;11136;48.778;9.126;2023-06-19T06:58:01;2.05;;;1.88;;
21943;SDS011;11136;48.778;9.126;2023-06-19T07:00:26;2.70;;;2.03;;
21943;SDS011;11136;48.778;9.126;2023-06-19T07:02:52;2.60;;;2.22;;
21943;SDS011;11136;48.778;9.126;2023-06-19T07:05:18;5.35;;;2.10;;
21943;SDS011;11136;48.778;9.126;2023-06-19T07:07:44;2.67;;;2.05;;
21943;SDS011;11136;48.778;9.126;2023-06-19T07:10:10;2.60;;;1.92;;
21943;SDS011;11136;48.778;9.126;2023-06-19T07:12:35;2.30;;;1.98;;
21943;SDS011;11136;48.778;9.126;2023-06-19T07:15:10;2.50;;;2.00;;
21943;SDS011;11136;48.778;9.126;2023-06-19T07:17:35;2.30;;;2.10;;
21943;SDS011;11136;48.778;9.126;2023-06-19T07:20:01;2.50;;;1.98;;
21943;SDS011;11136;48.778;9.126;2023-06-19T07:22:27;2.30;;;1.98;;
21943;SDS011;11136;48.778;9.126;2023-06-19T07:24:52;2.67;;;1.92;;
21943;SDS011;11136;48.778;9.126;2023-06-19T07:27:18;3.60;;;1.80;;
21943;SDS011;11136;48.778;9.126;2023-06-19T07:29:44;2.08;;;1.80;;
21943;SDS011;11136;48.778;9.126;2023-06-19T07:32:09;3.28;;;2.03;;
21943;SDS011;11136;48.778;9.126;2023-06-19T07:34:35;2.30;;;1.85;;
21943;SDS011;11136;48.778;9.126;2023-06-19T07:37:01;1.80;;;1.70;;
21943;SDS011;11136;48.778;9.126;2023-06-19T07:39:26;2.13;;;1.92;;
21943;SDS011;11136;48.778;9.126;2023-06-19T07:41:52;1.58;;;1.48;;
21943;SDS011;11136;48.778;9.126;2023-06-19T07:44:17;2.08;;;1.80;;
21943;SDS011;11136;48.778;9.126;2023-06-19T07:46:45;2.95;;;1.67;;
21943;SDS011;11136;48.778;9.126;2023-06-19T07:49:11;3.05;;;2.45;;
21943;SDS011;11136;48.778;9.126;2023-06-19T07:51:37;2.20;;;1.90;;
21943;SDS011;11136;48.778;9.126;2023-06-19T07:54:02;2.22;;;1.83;;
21943;SDS011;11136;48.778;9.126;2023-06-19T07:56:28;2.58;;;2.38;;
21943;SDS011;11136;48.778;9.126;2023-06-19T07:58:53;2.22;;;2.03;;
21943;SDS011;11136;48.778;9.126;2023-06-19T08:01:19;3.15;;;2.15;;
21943;SDS011;11136;48.778;9.126;2023-06-19T08:03:45;3.03;;;2.15;;
21943;SDS011;11136;48.778;9.126;2023-06-19T08:06:11;2.30;;;2.10;;
21943;SDS011;11136;48.778;9.126;2023-06-19T08:08:37;2.00;;;1.90;;
21943;SDS011;11136;48.778;9.126;2023-06-19T08:11:02;3.65;;;2.10;;
21943;SDS011;11136;48.778;9.126;2023-06-19T08:13:28;3.67;;;1.92;;
21943;SDS011;11136;48.778;9.126;2023-06-19T08:15:53;2.38;;;1.90;;
21943;SDS011;11136;48.778;9.126;2023-06-19T08:18:19;2.08;;;1.90;;
21943;SDS011;11136;48.778;9.126;2023-06-19T08:20:45;2.88;;;1.88;;
21943;SDS011;11136;48.778;9.126;2023-06-19T08:23:10;3.53;;;2.22;;
21943;SDS011;11136;48.778;9.126;2023-06-19T08:25:36;3.47;;;2.17;;
21943;SDS011;11136;48.778;9.126;2023-06-19T08:28:01;2.85;;;2.13;;
21943;SDS011;11136;48.778;9.126;2023-06-19T08:30:27;2.17;;;2.03;;
21943;SDS011;11136;48.778;9.126;2023-06-19T08:32:53;4.38;;;2.65;;
21943;SDS011;11136;48.778;9.126;2023-06-19T08:35:18;3.67;;;2.63;;
21943;SDS011;11136;48.778;9.126;2023-06-19T08:37:44;4.00;;;2.65;;
21943;SDS011;11136;48.778;9.126;2023-06-19T08:40:10;3.03;;;2.70;;
21943;SDS011;11136;48.778;9.126;2023-06-19T08:42:37;2.33;;;1.92;;
21943;SDS011;11136;48.778;9.126;2023-06-19T08:45:04;2.90;;;2.15;;
21943;SDS011;11136;48.778;9.126;2023-06-19T08:47:31;3.42;;;2.30;;
21943;SDS011;11136;48.778;9.126;2023-06-19T08:49:58;2.78;;;2.10;;
21943;SDS011;11136;48.778;9.126;2023-06-19T08:52:24;3.13;;;2.45;;
21943;SDS011;11136;48.778;9.126;2023-06-19T08:54:50;3.80;;;2.17;;
21943;SDS011;11136;48.778;9.126;2023-06-19T08:57:15;3.10;;;2.25;;
21943;SDS011;11136;48.778;9.126;2023-06-19T08:59:47;2.47;;;2.25;;
21943;SDS011;11136;48.778;9.126;2023-06-19T09:02:14;2.58;;;2.38;;
21943;SDS011;11136;48.778;9.126;2023-06-19T09:04:40;2.55;;;1.90;;
21943;SDS011;11136;48.778;9.126;2023-06-19T09:07:07;2.20;;;2.00;;
21943;SDS011;11136;48.778;9.126;2023-06-19T09:09:33;5.40;;;2.10;;
21943;SDS011;11136;48.778;9.126;2023-06-19T09:12:03;1.92;;;1.83;;
21943;SDS011;11136;48.778;9.126;2023-06-19T09:14:36;3.15;;;1.90;;
21943;SDS011;11136;48.778;9.126;2023-06-19T09:17:04;6.40;;;2.40;;
21943;SDS011;11136;48.778;9.126;2023-06-19T09:19:32;2.38;;;2.00;;
21943;SDS011;11136;48.778;9.126;2023-06-19T09:22:05;2.40;;;2.20;;
21943;SDS011;11136;48.778;9.126;2023-06-19T09:24:36;2.10;;;1.90;;
21943;SDS011;11136;48.778;9.126;2023-06-19T09:27:09;2.38;;;1.90;;
21943;SDS011;11136;48.778;9.126;2023-06-19T09:29:39;2.20;;;1.80;;
21943;SDS011;11136;48.778;9.126;2023-06-19T09:34:40;2.35;;;1.95;;
21943;SDS011;11136;48.778;9.126;2023-06-19T09:37:06;3.08;;;2.00;;
21943;SDS011;11136;48.778;9.126;2023-06-19T09:39:33;2.95;;;2.38;;
21943;SDS011;11136;48.778;9.126;2023-06-19T09:42:02;2.88;;;2.28;;
21943;SDS011;11136;48.778;9.126;2023-06-19T09:44:31;2.78;;;2.20;;
21943;SDS011;11136;48.778;9.126;2023-06-19T09:46:59;2.42;;;2.22;;
21943;SDS011;11136;48.778;9.126;2023-06-19T09:49:27;3.15;;;2.20;;
21943;SDS011;11136;48.778;9.126;2023-06-19T09:51:57;6.95;;;2.63;;
21943;SDS011;11136;48.778;9.126;2023-06-19T09:54:23;3.72;;;2.33;;
21943;SDS011;11136;48.778;9.126;2023-06-19T09:56:51;7.75;;;2.38;;
21943;SDS011;11136;48.778;9.126;2023-06-19T09:59:20;3.13;;;2.83;;
21943;SDS011;11136;48.778;9.126;2023-06-19T10:01:47;3.10;;;1.90;;
21943;SDS011;11136;48.778;9.126;2023-06-19T10:04:14;3.38;;;2.53;;
21943;SDS011;11136;48.778;9.126;2023-06-19T10:06:45;3.90;;;2.72;;
21943;SDS011;11136;48.778;9.126;2023-06-19T10:09:11;2.80;;;2.50;;
21943;SDS011;11136;48.778;9.126;2023-06-19T10:11:48;4.90;;;2.58;;
21943;SDS011;11136;48.778;9.126;2023-06-19T10:14:19;3.50;;;2.47;;
21943;SDS011;11136;48.778;9.126;2023-06-19T10:16:45;4.28;;;3.08;;
21943;SDS011;11136;48.778;9.126;2023-06-19T10:19:13;3.13;;;2.83;;
21943;SDS011;11136;48.778;9.126;2023-06-19T10:21:46;2.90;;;2.38;;
21943;SDS011;11136;48.778;9.126;2023-06-19T10:24:14;3.00;;;2.72;;
21943;SDS011;11136;48.778;9.126;2023-06-19T10:26:43;4.93;;;2.78;;
21943;SDS011;11136;48.778;9.126;2023-06-19T10:29:15;4.47;;;3.75;;
21943;SDS011;11136;48.778;9.126;2023-06-19T10:31:42;4.93;;;3.47;;
21943;SDS011;11136;48.778;9.126;2023-06-19T10:34:09;4.53;;;3.13;;
21943;SDS011;11136;48.778;9.126;2023-06-19T10:36:35;4.82;;;2.88;;
21943;SDS011;11136;48.778;9.126;2023-06-19T10:39:00;6.45;;;2.83;;
21943;SDS011;11136;48.778;9.126;2023-06-19T10:41:26;3.17;;;2.85;;
21943;SDS011;11136;48.778;9.126;2023-06-19T10:43:58;7.78;;;2.75;;
21943;SDS011;11136;48.778;9.126;2023-06-19T10:46:28;4.53;;;2.95;;
21943;SDS011;11136;48.778;9.126;2023-06-19T10:48:55;4.13;;;2.65;;
21943;SDS011;11136;48.778;9.126;2023-06-19T10:51:29;3.55;;;2.70;;
21943;SDS011;11136;48.778;9.126;2023-06-19T10:54:06;8.63;;;3.08;;
21943;SDS011;11136;48.778;9.126;2023-06-19T10:56:33;9.27;;;2.53;;
21943;SDS011;11136;48.778;9.126;2023-06-19T10:59:05;4.50;;;2.97;;
21943;SDS011;11136;48.778;9.126;2023-06-19T11:01:38;6.72;;;3.38;;
21943;SDS011;11136;48.778;9.126;2023-06-19T11:04:11;5.18;;;3.22;;
21943;SDS011;11136;48.778;9.126;2023-06-19T11:06:39;6.88;;;3.10;;
21943;SDS011;11136;48.778;9.126;2023-06-19T11:09:06;4.10;;;2.85;;
21943;SDS011;11136;48.778;9.126;2023-06-19T11:11:36;3.00;;;2.53;;
21943;SDS011;11136;48.778;9.126;2023-06-19T11:14:06;2.95;;;2.50;;
21943;SDS011;11136;48.778;9.126;2023-06-19T11:16:33;4.45;;;2.53;;
21943;SDS011;11136;48.778;9.126;2023-06-19T11:19:00;5.03;;;2.92;;
21943;SDS011;11136;48.778;9.126;2023-06-19T11:21:33;5.90;;;2.72;;
21943;SDS011;11136;48.778;9.126;2023-06-19T11:24:03;5.05;;;2.92;;
21943;SDS011;11136;48.778;9.126;2023-06-19T11:26:33;4.20;;;2.83;;
21943;SDS011;11136;48.778;9.126;2023-06-19T11:29:00;5.25;;;3.25;;
21943;SDS011;11136;48.778;9.126;2023-06-19T11:31:26;6.72;;;2.83;;
21943;SDS011;11136;48.778;9.126;2023-06-19T11:33:55;2.85;;;2.65;;
21943;SDS011;11136;48.778;9.126;2023-06-19T11:36:23;4.30;;;2.78;;
21943;SDS011;11136;48.778;9.126;2023-06-19T11:38:49;2.88;;;2.58;;
21943;SDS011;11136;48.778;9.126;2023-06-19T11:41:24;3.17;;;2.88;;
21943;SDS011;11136;48.778;9.126;2023-06-19T11:44:03;4.80;;;2.45;;
21943;SDS011;11136;48.778;9.126;2023-06-19T11:46:30;3.78;;;3.03;;
21943;SDS011;11136;48.778;9.126;2023-06-19T11:49:12;3.60;;;2.83;;
21943;SDS011;11136;48.778;9.126;2023-06-19T11:51:44;3.28;;;2.50;;
21943;SDS011;11136;48.778;9.126;2023-06-19T11:54:10;3.38;;;2.88;;
21943;SDS011;11136;48.778;9.126;2023-06-19T11:56:45;3.63;;;2.72;;
21943;SDS011;11136;48.778;9.126;2023-06-19T11:59:12;4.00;;;2.95;;
21943;SDS011;11136;48.778;9.126;2023-06-19T12:01:39;2.80;;;2.60;;
21943;SDS011;11136;48.778;9.126;2023-06-19T12:04:04;5.90;;;3.17;;
21943;SDS011;11136;48.778;9.126;2023-06-19T12:06:30;4.50;;;2.80;;
21943;SDS011;11136;48.778;9.126;2023-06-19T12:08:56;3.25;;;2.95;;
21943;SDS011;11136;48.778;9.126;2023-06-19T12:11:22;4.50;;;2.70;;
21943;SDS011;11136;48.778;9.126;2023-06-19T12:13:48;3.35;;;3.05;;
21943;SDS011;11136;48.778;9.126;2023-06-19T12:16:14;6.20;;;3.20;;
21943;SDS011;11136;48.778;9.126;2023-06-19T12:18:40;3.40;;;3.10;;
21943;SDS011;11136;48.778;9.126;2023-06-19T12:21:05;3.17;;;2.80;;
21943;SDS011;11136;48.778;9.126;2023-06-19T12:23:31;3.65;;;2.58;;
21943;SDS011;11136;48.778;9.126;2023-06-19T12:25:57;3.28;;;2.83;;
21943;SDS011;11136;48.778;9.126;2023-06-19T12:28:23;5.65;;;3.22;;
21943;SDS011;11136;48.778;9.126;2023-06-19T12:30:49;5.38;;;2.65;;
21943;SDS011;11136;48.778;9.126;2023-06-19T12:33:18;4.57;;;2.72;;
21943;SDS011;11136;48.778;9.126;2023-06-19T12:35:44;12.52;;;4.18;;
21943;SDS011;11136;48.778;9.126;2023-06-19T12:38:10;6.53;;;2.80;;
21943;SDS011;11136;48.778;9.126;2023-06-19T12:40:36;3.60;;;2.90;;
21943;SDS011;11136;48.778;9.126;2023-06-19T12:43:03;5.70;;;3.17;;
21943;SDS011;11136;48.778;9.126;2023-06-19T12:45:29;6.97;;;2.85;;
21943;SDS011;11136;48.778;9.126;2023-06-19T12:47:54;5.72;;;3.10;;
21943;SDS011;11136;48.778;9.126;2023-06-19T12:50:20;2.65;;;2.45;;
21943;SDS011;11136;48.778;9.126;2023-06-19T12:52:46;2.95;;;2.65;;
21943;SDS011;11136;48.778;9.126;2023-06-19T12:55:11;5.70;;;3.08;;
21943;SDS011;11136;48.778;9.126;2023-06-19T12:57:37;3.05;;;2.50;;
21943;SDS011;11136;48.778;9.126;2023-06-19T13:00:03;4.68;;;2.75;;
21943;SDS011;11136;48.778;9.126;2023-06-19T13:02:33;3.65;;;3.17;;
21943;SDS011;11136;48.778;9.126;2023-06-19T13:04:59;2.78;;;2.53;;
21943;SDS011;11136;48.778;9.126;2023-06-19T13:07:24;3.80;;;3.00;;
21943;SDS011;11136;48.778;9.126;2023-06-19T13:09:50;3.25;;;2.95;;
21943;SDS011;11136;48.778;9.126;2023-06-19T13:12:16;4.65;;;2.67;;
21943;SDS011;11136;48.778;9.126;2023-06-19T13:14:42;3.25;;;2.60;;
21943;SDS011;11136;48.778;9.126;2023-06-19T13:17:07;5.55;;;3.20;;
21943;SDS011;11136;48.778;9.126;2023-06-19T13:19:33;4.70;;;2.92;;
21943;SDS011;11136;48.778;9.126;2023-06-19T13:21:59;3.95;;;2.65;;
21943;SDS011;11136;48.778;9.126;2023-06-19T13:24:25;4.78;;;2.75;;
21943;SDS011;11136;48.778;9.126;2023-06-19T13:26:53;4.05;;;2.97;;
21943;SDS011;11136;48.778;9.126;2023-06-19T13:29:19;2.83;;;2.63;;
21943;SDS011;11136;48.778;9.126;2023-06-19T13:31:45;3.72;;;3.05;;
21943;SDS011;11136;48.778;9.126;2023-06-19T13:34:11;7.60;;;2.83;;
21943;SDS011;11136;48.778;9.126;2023-06-19T13:36:36;2.70;;;2.50;;
21943;SDS011;11136;48.778;9.126;2023-06-19T13:39:02;4.47;;;3.20;;
21943;SDS011;11136;48.778;9.126;2023-06-19T13:41:28;5.13;;;3.05;;
21943;SDS011;11136;48.778;9.126;2023-06-19T13:43:56;4.70;;;2.72;;
21943;SDS011;11136;48.778;9.126;2023-06-19T13:46:21;4.90;;;2.88;;
21943;SDS011;11136;48.778;9.126;2023-06-19T13:48:47;3.90;;;2.88;;
21943;SDS011;11136;48.778;9.126;2023-06-19T13:51:16;6.10;;;2.97;;
21943;SDS011;11136;48.778;9.126;2023-06-19T13:53:45;4.37;;;3.20;;
21943;SDS011;11136;48.778;9.126;2023-06-19T13:56:11;3.92;;;2.50;;
21943;SDS011;11136;48.778;9.126;2023-06-19T13:58:37;3.70;;;2.83;;
21943;SDS011;11136;48.778;9.126;2023-06-19T14:01:03;5.82;;;3.58;;
21943;SDS011;11136;48.778;9.126;2023-06-19T14:03:29;3.80;;;2.75;;
21943;SDS011;11136;48.778;9.126;2023-06-19T14:05:54;2.85;;;2.53;;
21943;SDS011;11136;48.778;9.126;2023-06-19T14:08:20;3.63;;;2.63;;
21943;SDS011;11136;48.778;9.126;2023-06-19T14:10:45;3.85;;;2.97;;
21943;SDS011;11136;48.778;9.126;2023-06-19T14:13:11;3.60;;;2.90;;
21943;SDS011;11136;48.778;9.126;2023-06-19T14:15:37;7.80;;;3.20;;
21943;SDS011;11136;48.778;9.126;2023-06-19T14:18:02;3.70;;;2.75;;
21943;SDS011;11136;48.778;9.126;2023-06-19T14:20:28;3.47;;;2.63;;
21943;SDS011;11136;48.778;9.126;2023-06-19T14:22:53;7.13;;;3.05;;
21943;SDS011;11136;48.778;9.126;2023-06-19T14:25:19;5.68;;;3.25;;
21943;SDS011;11136;48.778;9.126;2023-06-19T14:27:44;3.35;;;3.05;;
21943;SDS011;11136;48.778;9.126;2023-06-19T14:30:10;4.03;;;3.03;;
21943;SDS011;11136;48.778;9.126;2023-06-19T14:32:36;6.15;;;2.90;;
21943;SDS011;11136;48.778;9.126;2023-06-19T14:35:02;8.13;;;2.90;;
21943;SDS011;11136;48.778;9.126;2023-06-19T14:37:29;3.13;;;2.80;;
21943;SDS011;11136;48.778;9.126;2023-06-19T14:39:54;3.53;;;2.95;;
21943;SDS011;11136;48.778;9.126;2023-06-19T14:42:21;3.97;;;2.92;;
21943;SDS011;11136;48.778;9.126;2023-06-19T14:44:47;7.38;;;2.80;;
21943;SDS011;11136;48.778;9.126;2023-06-19T14:47:13;4.53;;;3.20;;
21943;SDS011;11136;48.778;9.126;2023-06-19T14:49:38;2.85;;;2.63;;
21943;SDS011;11136;48.778;9.126;2023-06-19T14:52:04;4.05;;;2.35;;
21943;SDS011;11136;48.778;9.126;2023-06-19T14:54:31;4.10;;;2.90;;